Aeroporto :
LOGIN :

Iscrizione | Disclaimer

   EN    FR    IT 

 










Sommario :    VFR   VFR Marginale   IFR   IFR Intensivo   IFR Molto Intensivo
Visibilità : 
Base nubi : 
>= 8 km
>= 3000ft
5 / 8 km
1000 / 3000 ft
1500m / 5 km
500 / 1000 ft
800 / 1500m
200 / 500 ft
< 800m
< 200 ft
Simboli :   Temporali  Nebbia  Neve Forte  Precipitazioni Forti  Vento > 20 kt
SIGMETs :   Varie  Temporali  Ghiacco  Turbolenza  Onda orograficha  Ceneri Vulcaniche






- Altitudine del aeroporto : 82 ft
- Codice IATA : AAR


EKAH - Aarhus Tirstrup

ULTIMO METAR :
  • 172320Z AUTO 21005KT 160V260 6000NDV OVC004/// 07/07 Q1008

METARs OBSOLETI :
  • 172250Z AUTO 21004KT 170V290 9000NDV OVC011/// 07/07 Q1008
  • 172220Z AUTO 22005KT 110V270 7000NDV -DZ BKN006/// 07/07 Q1008
  • 172150Z AUTO 21005KT 160V300 6000NDV -DZ OVC006/// 08/07 Q1008
  • 172120Z AUTO 21004KT 150V260 7000NDV -DZ OVC008/// 08/06 Q1008
  • 172050Z AUTO 20005KT 160V250 8000NDV OVC008/// 08/06 Q1009

TAF TAF EKAH
Valido dal 18 a 00 ore il 19 a 00 ore UTC


172309Z 1800/1824 22012KT 4000 BR BKN008
BECMG 1800/1802 9000 NSW BKN015
TEMPO 1802/1818 SHRA BKN008 SCT030CB
PROB40 1810/1816 25015G25KT 4000 SHGS



MetMap, La meteo Aeronautica in un colpo d'occhio ! - Copyright ORBIFLY Dicembre 2007 - Disclaimer

ORBIFLY MET'MAP TEAM :

Programmazione e sviluppo : Alexandra Zaïnal
Concezione : Baudouin d'Aumeries
Aiuto per la programmazione : Marc-Olivier Méhu
Supporto tecnico e logistico : Manuel Goepfert
Aiuto per la traduzione : Arnaldo La Scala

Contatto : metmap@orbifly.com




FONTI E CREDITI :

   NOAA